Time;durP1;ratioP1;P1;durP2;ratioP2;P2;SDS_P1;SDS_P2;PMS_P1;PMS_P2;Temp;Humidity;BMP_temperature;BMP_pressure;BME280_temperature;BME280_humidity;BME280_pressure;Samples;Min_cycle;Max_cycle;Signal;HPM_P1;HPM_P2
2022/02/25 00:01:10;;;;;;;2.27;1.10;;;;;;;9.00;47.39;97728.56;5031883;28;20270;-72
2022/02/25 00:03:36;;;;;;;1.30;0.77;;;;;;;9.13;47.46;97717.88;5032119;28;20240;-71
2022/02/25 00:06:01;;;;;;;2.67;1.00;;;;;;;9.13;47.44;97723.13;5031665;28;20270;-70
2022/02/25 00:08:27;;;;;;;2.70;1.20;;;;;;;9.22;47.34;97732.78;5030991;28;20240;-71
2022/02/25 00:10:52;;;;;;;3.23;0.80;;;;;;;9.14;47.00;97735.25;5031588;28;20217;-70
2022/02/25 00:13:18;;;;;;;2.83;1.07;;;;;;;9.14;47.24;97741.28;5031126;28;20714;-71
2022/02/25 00:15:43;;;;;;;4.10;1.00;;;;;;;9.11;46.70;97733.72;5031011;28;20180;-72
2022/02/25 00:18:08;;;;;;;2.77;0.80;;;;;;;9.20;47.43;97732.09;5031607;28;20584;-71
2022/02/25 00:20:34;;;;;;;2.00;0.90;;;;;;;9.19;47.49;97744.34;5031856;28;20250;-70
2022/02/25 00:22:59;;;;;;;3.20;1.00;;;;;;;9.12;47.28;97743.22;5031986;28;20263;-72
2022/02/25 00:25:25;;;;;;;5.13;1.27;;;;;;;9.18;47.50;97741.88;5031214;28;20171;-71
2022/02/25 00:27:50;;;;;;;4.57;1.00;;;;;;;9.17;47.17;97742.84;5031159;28;20312;-71
2022/02/25 00:30:16;;;;;;;2.60;1.17;;;;;;;9.15;47.65;97757.81;5030543;28;20734;-72
2022/02/25 00:32:41;;;;;;;3.57;1.40;;;;;;;9.22;48.08;97767.63;5031364;28;20171;-71
2022/02/25 00:35:08;;;;;;;1.77;0.80;;;;;;;9.25;47.05;97784.03;5031192;28;20267;-72
2022/02/25 00:37:33;;;;;;;1.67;1.27;;;;;;;9.12;47.41;97786.84;5013856;28;20206;-71
2022/02/25 00:39:59;;;;;;;1.70;1.03;;;;;;;9.06;47.56;97790.78;5031319;28;20945;-72
2022/02/25 00:42:24;;;;;;;11.40;1.20;;;;;;;9.13;47.08;97796.34;5013128;28;20723;-71
2022/02/25 00:44:50;;;;;;;3.70;1.27;;;;;;;9.09;47.27;97794.94;5030349;28;20187;-71
2022/02/25 00:47:16;;;;;;;2.20;1.23;;;;;;;9.14;46.18;97798.81;5031874;28;20578;-71
2022/02/25 00:49:41;;;;;;;2.07;1.23;;;;;;;9.11;46.81;97798.25;5031101;28;20289;-72
2022/02/25 00:52:06;;;;;;;1.43;0.90;;;;;;;9.12;46.28;97805.16;5030906;28;20187;-71
2022/02/25 00:54:32;;;;;;;1.87;1.10;;;;;;;9.09;46.24;97810.63;5030427;28;20258;-73
2022/02/25 00:56:58;;;;;;;1.93;1.17;;;;;;;9.12;47.17;97810.38;5031243;28;20200;-72
2022/02/25 00:59:23;;;;;;;2.60;1.20;;;;;;;9.07;46.83;97813.38;5030581;28;20682;-72
2022/02/25 01:01:49;;;;;;;5.43;1.40;;;;;;;9.09;46.05;97821.94;5031045;28;20188;-71
2022/02/25 01:04:14;;;;;;;2.10;0.90;;;;;;;9.05;45.52;97815.28;5030465;28;20593;-71
2022/02/25 01:06:41;;;;;;;4.20;1.50;;;;;;;9.06;45.90;97822.16;5030184;28;20206;-71
2022/02/25 01:09:06;;;;;;;5.30;1.63;;;;;;;8.87;45.75;97820.25;5015491;28;20201;-72
2022/02/25 01:11:32;;;;;;;2.03;1.10;;;;;;;8.89;45.73;97827.00;5030529;28;20494;-71
2022/02/25 01:13:57;;;;;;;2.93;1.33;;;;;;;8.76;46.11;97835.03;5030553;28;20180;-71
2022/02/25 01:16:23;;;;;;;1.33;0.90;;;;;;;8.76;46.26;97842.03;5012508;28;20194;-72
2022/02/25 01:18:48;;;;;;;2.00;1.30;;;;;;;8.43;45.83;97847.25;5031885;28;20179;-70
2022/02/25 01:21:14;;;;;;;2.63;1.10;;;;;;;8.50;46.16;97852.84;5034702;28;20181;-72
2022/02/25 01:23:39;;;;;;;2.50;1.27;;;;;;;8.46;46.35;97856.59;5034548;28;20203;-72
2022/02/25 01:26:04;;;;;;;3.43;1.20;;;;;;;8.39;45.93;97861.50;5033876;28;20189;-71
2022/02/25 01:28:33;;;;;;;4.93;1.40;;;;;;;8.41;46.27;97863.97;5034455;28;20201;-71
2022/02/25 01:31:00;;;;;;;2.60;1.37;;;;;;;8.26;45.51;97863.41;5034625;28;20217;-71
2022/02/25 01:33:26;;;;;;;2.90;1.27;;;;;;;8.24;46.13;97867.94;5034791;28;20419;-70
2022/02/25 01:35:51;;;;;;;7.73;1.27;;;;;;;8.30;45.80;97868.28;5034218;28;20432;-70
2022/02/25 01:38:17;;;;;;;1.77;1.10;;;;;;;8.32;45.75;97877.78;5034332;28;20287;-70
2022/02/25 01:40:43;;;;;;;3.47;1.10;;;;;;;8.30;45.98;97880.50;5000258;28;20175;-70
2022/02/25 01:43:08;;;;;;;3.53;1.43;;;;;;;8.29;45.94;97876.25;5033784;28;20910;-73
2022/02/25 01:45:35;;;;;;;3.70;1.47;;;;;;;8.29;45.25;97878.84;5033709;28;20266;-71
2022/02/25 01:48:01;;;;;;;2.70;1.37;;;;;;;8.13;45.37;97876.59;5033946;28;20213;-70
2022/02/25 01:50:28;;;;;;;4.57;1.10;;;;;;;8.21;45.72;97879.47;5033974;28;22120;-71
2022/02/25 01:53:05;;;;;;;1.90;1.00;;;;;;;8.17;45.28;97882.44;5034163;28;20429;-71
2022/02/25 01:55:31;;;;;;;7.00;1.70;;;;;;;7.97;45.29;97882.19;5033683;28;20938;-71
2022/02/25 01:57:57;;;;;;;1.53;1.30;;;;;;;8.00;45.22;97884.56;5033321;28;20537;-72
2022/02/25 02:00:23;;;;;;;2.93;1.10;;;;;;;7.88;45.46;97888.13;5033826;28;20534;-71
2022/02/25 02:02:49;;;;;;;3.20;1.33;;;;;;;7.90;46.06;97884.44;5033913;28;20654;-71
2022/02/25 02:05:15;;;;;;;4.10;1.63;;;;;;;7.84;45.91;97893.59;5032718;28;20203;-71
2022/02/25 02:07:40;;;;;;;2.80;1.23;;;;;;;7.95;45.80;97881.47;5033811;28;20442;-71
2022/02/25 02:10:06;;;;;;;4.17;1.40;;;;;;;7.94;46.09;97895.50;5015676;28;20230;-71
2022/02/25 02:12:32;;;;;;;1.77;1.07;;;;;;;7.96;46.28;97896.19;5033626;28;20237;-70
2022/02/25 02:14:57;;;;;;;1.60;1.03;;;;;;;7.95;46.00;97902.34;5033778;28;20222;-71
2022/02/25 02:17:22;;;;;;;3.13;1.30;;;;;;;7.87;45.35;97896.91;5033130;28;20213;-72
2022/02/25 02:19:48;;;;;;;5.90;1.43;;;;;;;7.92;45.55;97900.81;5033835;28;20193;-70
2022/02/25 02:22:14;;;;;;;5.67;1.40;;;;;;;7.88;45.92;97899.38;5033045;28;20191;-69
2022/02/25 02:24:40;;;;;;;2.37;1.50;;;;;;;7.93;45.07;97899.06;5033014;28;20179;-73
2022/02/25 02:27:05;;;;;;;2.50;1.33;;;;;;;7.94;45.10;97898.94;5033135;28;20914;-71
2022/02/25 02:29:31;;;;;;;4.07;1.20;;;;;;;7.94;45.36;97896.31;5032222;28;20208;-72
2022/02/25 02:31:56;;;;;;;3.57;1.47;;;;;;;7.91;45.18;97903.56;5032637;28;20191;-71
2022/02/25 02:34:22;;;;;;;2.70;1.30;;;;;;;7.80;44.88;97902.63;5032894;28;20530;-72
2022/02/25 02:36:47;;;;;;;2.83;0.87;;;;;;;7.90;45.17;97907.13;5033185;28;20207;-72
2022/02/25 02:39:13;;;;;;;3.57;1.43;;;;;;;7.83;44.57;97907.56;5033078;28;20277;-69
2022/02/25 02:41:39;;;;;;;2.70;1.30;;;;;;;7.92;45.19;97913.06;5015301;28;20189;-71
2022/02/25 02:44:05;;;;;;;3.97;1.53;;;;;;;7.87;45.41;97913.41;5037881;28;20182;-71
2022/02/25 02:46:31;;;;;;;3.00;1.70;;;;;;;7.87;45.90;97917.78;5033271;28;20867;-70
2022/02/25 02:48:56;;;;;;;4.50;1.30;;;;;;;7.82;45.33;97916.34;5033314;28;20446;-71
2022/02/25 02:51:22;;;;;;;7.63;1.10;;;;;;;7.93;45.12;97925.97;5032643;28;20185;-70
2022/02/25 02:53:47;;;;;;;3.77;1.60;;;;;;;7.76;45.94;97927.28;5033334;28;20538;-70
2022/02/25 02:56:13;;;;;;;2.90;1.70;;;;;;;7.78;46.00;97925.38;5032571;28;20838;-71
2022/02/25 02:58:38;;;;;;;4.23;1.40;;;;;;;7.75;45.85;97925.59;5032328;28;20202;-70
2022/02/25 03:01:05;;;;;;;5.33;1.40;;;;;;;7.80;45.80;97938.31;5034008;28;20833;-70
2022/02/25 03:03:31;;;;;;;5.60;1.63;;;;;;;7.45;46.03;97934.78;5033513;28;20221;-69
2022/02/25 03:05:56;;;;;;;7.07;1.70;;;;;;;7.36;46.23;97938.09;5033033;28;21014;-69
2022/02/25 03:08:22;;;;;;;4.80;2.30;;;;;;;7.43;46.23;97941.94;5032496;28;20302;-71
2022/02/25 03:10:47;;;;;;;5.20;1.83;;;;;;;7.50;46.84;97932.69;5033143;28;20223;-71
2022/02/25 03:13:14;;;;;;;5.27;2.13;;;;;;;7.58;46.32;97934.72;5032286;28;20191;-70
2022/02/25 03:15:40;;;;;;;6.80;2.10;;;;;;;7.55;46.27;97934.13;5033468;28;20586;-72
2022/02/25 03:18:06;;;;;;;13.70;4.07;;;;;;;7.59;46.28;97931.16;5016198;28;20481;-71
2022/02/25 03:20:32;;;;;;;7.80;2.17;;;;;;;7.60;46.15;97938.06;5040536;28;20985;-72
2022/02/25 03:22:58;;;;;;;7.50;2.37;;;;;;;7.63;46.44;97937.78;5033070;28;20774;-71
2022/02/25 03:25:24;;;;;;;9.77;3.00;;;;;;;7.62;45.89;97938.78;5031691;28;20268;-70
2022/02/25 03:27:49;;;;;;;6.53;2.57;;;;;;;7.57;46.09;97940.03;5032534;28;20606;-71
2022/02/25 03:30:16;;;;;;;6.83;1.30;;;;;;;7.55;45.62;97955.00;5032422;28;20490;-71
2022/02/25 03:32:42;;;;;;;6.70;1.87;;;;;;;7.44;46.17;97956.59;5032861;28;20190;-71
2022/02/25 03:35:09;;;;;;;2.70;1.20;;;;;;;7.45;46.21;97955.66;5032076;28;20424;-71
2022/02/25 03:37:35;;;;;;;7.40;2.03;;;;;;;7.49;46.13;97961.50;5031269;28;20456;-71
2022/02/25 03:40:00;;;;;;;4.60;1.60;;;;;;;7.52;45.63;97964.72;5032061;28;20431;-70
2022/02/25 03:42:26;;;;;;;6.00;1.80;;;;;;;7.49;45.93;97959.72;5031488;28;20203;-69
2022/02/25 03:44:51;;;;;;;3.90;1.53;;;;;;;7.48;45.41;97963.25;5032015;28;20186;-71
2022/02/25 03:47:17;;;;;;;6.03;1.40;;;;;;;7.42;45.78;97961.13;5031977;28;20217;-70
2022/02/25 03:49:43;;;;;;;3.40;1.50;;;;;;;7.47;45.91;97961.59;5014539;28;20318;-70
2022/02/25 03:52:09;;;;;;;4.10;1.67;;;;;;;7.49;45.71;97964.13;5014119;28;20187;-70
2022/02/25 03:54:34;;;;;;;5.63;1.70;;;;;;;7.56;46.04;97970.53;5031256;28;20438;-70
2022/02/25 03:57:00;;;;;;;6.90;1.57;;;;;;;7.56;45.51;97964.50;5031075;28;20217;-71
2022/02/25 03:59:25;;;;;;;10.00;2.00;;;;;;;7.42;45.13;97971.56;5031791;28;20202;-70
2022/02/25 04:01:54;;;;;;;5.93;1.90;;;;;;;7.35;45.87;97965.13;5031668;28;20194;-71
2022/02/25 04:04:20;;;;;;;3.50;1.90;;;;;;;7.42;46.10;97976.78;5031610;28;20186;-70
2022/02/25 04:06:46;;;;;;;4.43;1.33;;;;;;;7.41;45.99;97974.25;5030959;28;20455;-70
2022/02/25 04:09:11;;;;;;;4.53;1.53;;;;;;;7.29;46.10;97974.22;5031093;28;21023;-70
2022/02/25 04:11:38;;;;;;;6.60;1.40;;;;;;;7.09;45.99;97974.84;5031061;28;20280;-70
2022/02/25 04:14:03;;;;;;;6.47;1.50;;;;;;;7.06;46.15;97978.50;5028298;28;20261;-71
2022/02/25 04:16:29;;;;;;;5.50;1.20;;;;;;;6.89;46.92;97982.31;5020470;28;20456;-72
2022/02/25 04:18:54;;;;;;;4.03;1.27;;;;;;;7.00;46.59;97987.59;5030999;28;20192;-70
2022/02/25 04:21:19;;;;;;;6.70;1.50;;;;;;;7.16;46.40;97992.56;5030728;28;20271;-71
2022/02/25 04:23:45;;;;;;;4.80;1.40;;;;;;;7.28;45.98;97995.22;5031440;28;20326;-71
2022/02/25 04:26:10;;;;;;;2.60;1.40;;;;;;;7.34;46.23;97999.97;5030583;28;20643;-70
2022/02/25 04:28:36;;;;;;;3.80;1.20;;;;;;;7.42;46.13;98002.84;5031655;28;20245;-71
2022/02/25 04:31:01;;;;;;;4.93;1.50;;;;;;;7.48;46.25;97999.78;5031222;28;20203;-69
2022/02/25 04:33:27;;;;;;;2.73;1.23;;;;;;;7.55;46.00;98001.97;5031740;28;20186;-71
2022/02/25 04:35:52;;;;;;;3.07;1.33;;;;;;;7.59;45.66;98004.22;5033530;28;20187;-71
2022/02/25 04:38:18;;;;;;;6.20;1.40;;;;;;;7.64;45.22;98006.47;5031231;28;20211;-71
2022/02/25 04:40:43;;;;;;;4.23;1.70;;;;;;;7.63;45.80;98015.25;5032495;28;20179;-70
2022/02/25 04:43:09;;;;;;;5.53;1.33;;;;;;;7.63;45.48;98015.25;5032140;28;20575;-71
2022/02/25 04:45:34;;;;;;;9.30;2.00;;;;;;;7.65;45.55;98016.78;5030985;28;20188;-72
2022/02/25 04:48:00;;;;;;;8.87;1.73;;;;;;;7.59;45.72;98014.66;5030326;28;20592;-71
2022/02/25 04:50:25;;;;;;;5.43;1.27;;;;;;;7.53;45.57;98018.56;5029874;28;20309;-71
2022/02/25 04:52:51;;;;;;;4.73;1.60;;;;;;;7.55;45.47;98020.22;5030774;28;20198;-71
2022/02/25 04:55:16;;;;;;;3.67;1.33;;;;;;;7.55;45.38;98017.59;5029647;28;20267;-70
2022/02/25 04:57:42;;;;;;;4.50;1.57;;;;;;;7.50;45.84;98018.75;5030705;28;20263;-71
2022/02/25 05:00:11;;;;;;;3.50;1.30;;;;;;;7.52;45.91;98029.94;5030576;28;20183;-70
2022/02/25 05:02:44;;;;;;;5.97;1.37;;;;;;;7.37;45.77;98020.59;5023277;28;20421;-71
2022/02/25 05:05:09;;;;;;;5.97;1.33;;;;;;;7.39;45.90;98026.56;5012361;28;20434;-69
2022/02/25 05:07:35;;;;;;;6.97;1.60;;;;;;;7.44;46.58;98021.00;5030457;28;20436;-69
2022/02/25 05:10:00;;;;;;;3.90;1.23;;;;;;;7.51;46.73;98022.19;5031072;28;20313;-70
2022/02/25 05:12:26;;;;;;;10.30;1.60;;;;;;;7.59;46.14;98025.09;5032203;28;20659;-70
2022/02/25 05:20:25;;;;;;;4.43;1.60;;;;;;;7.55;46.34;98034.06;5032076;28;20439;-70
2022/02/25 05:22:55;;;;;;;4.50;1.60;;;;;;;7.45;47.01;98044.34;5037184;28;20420;-70
2022/02/25 05:25:22;;;;;;;4.30;1.63;;;;;;;7.53;46.84;98047.25;5031067;28;20439;-70
2022/02/25 05:27:51;;;;;;;4.40;1.47;;;;;;;7.61;46.98;98044.06;5031236;28;20456;-71
2022/02/25 05:30:18;;;;;;;20.63;12.80;;;;;;;7.61;47.55;98056.28;5031079;28;20555;-70
2022/02/25 05:32:45;;;;;;;34.47;20.70;;;;;;;7.50;48.43;98051.81;5031885;28;20936;-70
2022/02/25 05:35:11;;;;;;;24.23;14.80;;;;;;;7.48;48.27;98056.34;5013468;28;20490;-70
2022/02/25 05:37:41;;;;;;;24.57;13.93;;;;;;;7.51;48.38;98064.78;5031398;28;20457;-70
2022/02/25 05:40:07;;;;;;;23.37;14.40;;;;;;;7.58;48.27;98064.31;5014425;28;20431;-71
2022/02/25 05:42:33;;;;;;;15.70;9.00;;;;;;;7.52;47.61;98060.38;5031651;28;20420;-71
2022/02/25 05:45:00;;;;;;;34.87;20.17;;;;;;;7.51;48.16;98064.78;5013199;28;20435;-71
2022/02/25 05:47:26;;;;;;;52.70;28.23;;;;;;;7.53;47.54;98069.88;5030460;28;20466;-68
2022/02/25 05:49:51;;;;;;;21.20;10.70;;;;;;;7.56;48.01;98074.88;5031584;28;20515;-70
2022/02/25 05:52:17;;;;;;;3.00;2.23;;;;;;;7.49;47.50;98073.66;5030975;28;20924;-70
2022/02/25 05:54:42;;;;;;;11.87;2.10;;;;;;;7.58;47.09;98091.25;5030805;28;20293;-70
2022/02/25 05:57:08;;;;;;;3.90;1.80;;;;;;;7.61;47.09;98095.41;5030981;28;20216;-71
2022/02/25 05:59:33;;;;;;;3.10;1.47;;;;;;;7.71;47.54;98100.78;5031469;28;20184;-71
2022/02/25 06:01:59;;;;;;;4.90;1.50;;;;;;;7.67;47.11;98098.41;5030996;28;20265;-71
2022/02/25 06:04:24;;;;;;;8.63;1.70;;;;;;;7.71;46.94;98108.63;5031163;28;20191;-71
2022/02/25 06:06:50;;;;;;;5.03;1.80;;;;;;;7.78;47.26;98105.47;5016596;28;20706;-71
2022/02/25 06:09:15;;;;;;;5.90;1.80;;;;;;;7.84;47.28;98112.00;5034523;28;20232;-70
2022/02/25 06:11:41;;;;;;;5.83;2.33;;;;;;;7.80;47.08;98116.63;5035378;28;20288;-69
2022/02/25 06:14:06;;;;;;;8.00;2.00;;;;;;;7.73;46.77;98106.75;5036602;28;20233;-71
2022/02/25 06:16:32;;;;;;;8.70;1.87;;;;;;;7.70;47.20;98113.00;5032269;28;20219;-69
2022/02/25 06:18:57;;;;;;;8.13;1.47;;;;;;;7.64;47.22;98108.25;5036643;28;20215;-69
2022/02/25 06:21:22;;;;;;;4.57;1.60;;;;;;;7.62;47.23;98108.38;5017529;28;20187;-69
2022/02/25 06:23:48;;;;;;;7.10;1.90;;;;;;;7.56;46.98;98121.84;5034432;28;20615;-69
2022/02/25 06:26:13;;;;;;;3.53;1.60;;;;;;;7.56;47.05;98123.63;5013863;28;20189;-69
2022/02/25 06:28:39;;;;;;;6.90;2.00;;;;;;;7.27;47.79;98122.13;5034472;28;20204;-70
2022/02/25 06:31:05;;;;;;;3.67;1.70;;;;;;;7.40;47.56;98118.66;5034784;28;20218;-71
2022/02/25 06:33:30;;;;;;;5.00;1.90;;;;;;;7.35;47.37;98130.28;5035230;28;20503;-70
2022/02/25 06:35:56;;;;;;;9.73;2.40;;;;;;;7.27;47.94;98131.75;5036510;28;20199;-70
2022/02/25 06:38:21;;;;;;;7.83;2.00;;;;;;;7.26;47.40;98125.69;5034241;28;20686;-71
2022/02/25 06:40:46;;;;;;;15.30;2.27;;;;;;;7.16;47.95;98128.13;5034603;28;20544;-72
2022/02/25 06:43:12;;;;;;;4.53;1.83;;;;;;;7.26;48.04;98125.69;5034576;28;20201;-70
2022/02/25 06:45:37;;;;;;;6.93;1.90;;;;;;;7.39;47.88;98128.25;5034735;28;20271;-73
2022/02/25 06:48:03;;;;;;;8.63;1.93;;;;;;;7.58;47.71;98126.94;5036997;28;20723;-70
2022/02/25 06:50:29;;;;;;;13.93;2.60;;;;;;;7.70;47.09;98139.09;5001803;28;20264;-69
2022/02/25 06:52:55;;;;;;;6.97;2.47;;;;;;;7.81;47.46;98136.53;5017125;28;20436;-69
2022/02/25 06:55:20;;;;;;;9.77;3.17;;;;;;;7.91;46.98;98138.50;5033847;28;20683;-71
2022/02/25 06:57:45;;;;;;;5.00;2.60;;;;;;;8.06;47.19;98147.81;5033941;28;20215;-71
2022/02/25 07:00:16;;;;;;;4.73;2.30;;;;;;;8.20;46.47;98141.56;5034835;28;20322;-70
2022/02/25 07:02:42;;;;;;;6.13;2.37;;;;;;;8.27;46.26;98145.34;5035525;28;20236;-70
2022/02/25 07:05:08;;;;;;;6.60;2.67;;;;;;;8.57;45.92;98148.41;5036092;28;20422;-71
2022/02/25 07:07:33;;;;;;;5.43;2.30;;;;;;;8.62;46.32;98156.75;5009854;28;20202;-69
2022/02/25 07:09:59;;;;;;;12.37;2.67;;;;;;;8.72;45.23;98160.31;5035168;28;20489;-69
2022/02/25 07:12:26;;;;;;;8.33;2.70;;;;;;;8.65;45.70;98164.38;5035351;28;20193;-72
2022/02/25 07:14:51;;;;;;;12.00;2.43;;;;;;;8.70;45.85;98171.84;5034751;28;20435;-72
2022/02/25 07:17:17;;;;;;;5.20;1.70;;;;;;;8.64;44.81;98173.16;5034811;28;20834;-70
2022/02/25 07:19:42;;;;;;;6.20;1.80;;;;;;;8.67;45.49;98175.53;5045279;28;20591;-71
2022/02/25 07:22:08;;;;;;;5.00;1.20;;;;;;;8.68;46.05;98171.97;5034324;28;20277;-70
2022/02/25 07:24:33;;;;;;;4.73;1.90;;;;;;;8.68;45.16;98174.59;5034937;28;20188;-69
2022/02/25 07:26:59;;;;;;;9.63;2.33;;;;;;;8.49;45.93;98174.31;5034651;28;20204;-72
2022/02/25 07:29:24;;;;;;;3.70;2.20;;;;;;;8.25;46.28;98189.03;5035026;28;20682;-71
2022/02/25 07:31:50;;;;;;;6.80;1.60;;;;;;;8.35;45.33;98189.19;5033815;28;20233;-70
2022/02/25 07:34:15;;;;;;;6.20;1.90;;;;;;;8.48;46.00;98178.72;5033710;28;20185;-70
2022/02/25 07:36:41;;;;;;;8.13;2.10;;;;;;;8.44;46.02;98185.06;5032462;28;20560;-71
2022/02/25 07:39:06;;;;;;;8.40;2.43;;;;;;;8.39;46.14;98182.81;5033293;28;20669;-70
2022/02/25 07:41:32;;;;;;;4.87;1.50;;;;;;;8.26;45.61;98189.88;5032711;28;20178;-69
2022/02/25 07:43:57;;;;;;;8.63;3.47;;;;;;;8.52;45.75;98193.19;5032534;28;20568;-70
2022/02/25 07:46:23;;;;;;;11.37;2.10;;;;;;;8.30;45.43;98188.72;5032004;28;20201;-71
2022/02/25 07:48:48;;;;;;;8.63;1.73;;;;;;;8.22;45.58;98188.44;5032305;28;20200;-69
2022/02/25 07:51:14;;;;;;;12.83;2.13;;;;;;;8.45;45.46;98205.84;5032163;28;20569;-70
2022/02/25 07:53:39;;;;;;;7.23;2.40;;;;;;;8.40;45.02;98201.91;5031998;28;20183;-71
2022/02/25 07:56:05;;;;;;;5.50;1.97;;;;;;;8.59;45.37;98201.41;5031564;28;20714;-71
2022/02/25 07:58:32;;;;;;;4.20;1.73;;;;;;;8.78;44.75;98203.44;5032266;28;20199;-69
2022/02/25 08:00:58;;;;;;;5.80;2.20;;;;;;;8.62;44.80;98206.41;5032589;28;20179;-70
2022/02/25 08:03:23;;;;;;;5.63;2.10;;;;;;;8.56;44.37;98212.94;5032327;28;20490;-70
2022/02/25 08:05:49;;;;;;;9.87;2.30;;;;;;;8.44;44.63;98209.41;5032071;28;20430;-70
2022/02/25 08:08:14;;;;;;;14.33;2.87;;;;;;;8.51;44.48;98214.22;5031621;28;20570;-71
2022/02/25 08:10:40;;;;;;;4.60;1.80;;;;;;;8.71;44.59;98217.94;5032623;28;20202;-73
2022/02/25 08:13:08;;;;;;;7.63;2.00;;;;;;;8.75;44.17;98219.41;5033096;28;20192;-71
2022/02/25 08:15:34;;;;;;;8.07;2.13;;;;;;;8.85;44.04;98219.50;5007140;28;20201;-71
2022/02/25 08:18:00;;;;;;;8.20;1.63;;;;;;;8.97;43.26;98213.34;5014966;28;20952;-72
2022/02/25 08:20:25;;;;;;;6.50;2.07;;;;;;;9.06;43.65;98217.88;5032639;28;20223;-71
2022/02/25 08:22:51;;;;;;;10.23;1.87;;;;;;;9.40;42.55;98208.38;5032638;28;20424;-71
2022/02/25 08:25:17;;;;;;;6.67;2.17;;;;;;;9.72;42.50;98202.34;5032626;28;20261;-71
2022/02/25 08:27:43;;;;;;;9.87;2.37;;;;;;;10.10;41.95;98206.28;5035263;28;20939;-69
2022/02/25 08:30:14;;;;;;;6.83;2.07;;;;;;;10.32;41.74;98207.19;5016770;28;20226;-70
2022/02/25 08:32:51;;;;;;;9.87;2.10;;;;;;;10.71;40.57;98191.75;5037310;28;20444;-70
2022/02/25 08:35:17;;;;;;;8.00;1.57;;;;;;;11.13;40.09;98191.66;5035421;28;20426;-71
2022/02/25 08:37:43;;;;;;;11.87;2.47;;;;;;;11.24;39.18;98189.91;5017056;28;20466;-70
2022/02/25 08:40:10;;;;;;;7.73;1.77;;;;;;;11.62;38.54;98188.38;5033353;28;20429;-70
2022/02/25 08:42:37;;;;;;;6.13;2.07;;;;;;;11.56;38.08;98181.88;5017276;28;20468;-70
2022/02/25 08:45:08;;;;;;;7.70;1.87;;;;;;;10.99;38.67;98202.50;5033483;28;21002;-70
2022/02/25 08:47:33;;;;;;;5.30;1.47;;;;;;;11.21;39.10;98191.00;5016277;28;20817;-70
2022/02/25 08:49:59;;;;;;;8.20;2.30;;;;;;;11.20;38.84;98184.94;5033814;28;20446;-71
2022/02/25 08:52:25;;;;;;;4.97;2.00;;;;;;;11.68;38.75;98177.34;5037217;28;20426;-70
2022/02/25 08:54:50;;;;;;;12.83;2.57;;;;;;;11.98;37.23;98180.84;5018170;28;20188;-70
2022/02/25 08:57:17;;;;;;;9.57;2.57;;;;;;;11.77;37.20;98184.41;5035128;28;20206;-70
2022/02/25 08:59:42;;;;;;;9.30;2.03;;;;;;;11.95;37.02;98187.19;5034170;28;20745;-70
2022/02/25 09:02:08;;;;;;;17.47;2.10;;;;;;;12.21;36.92;98186.66;5032827;28;20446;-71
2022/02/25 09:04:34;;;;;;;15.13;2.43;;;;;;;12.75;36.96;98178.31;4998623;28;20184;-70
2022/02/25 09:06:59;;;;;;;5.93;1.70;;;;;;;13.11;35.69;98183.72;5031917;28;20628;-69
2022/02/25 09:09:25;;;;;;;7.93;1.97;;;;;;;13.01;35.40;98177.66;5031151;28;20290;-69
2022/02/25 09:11:51;;;;;;;14.10;1.83;;;;;;;13.20;35.16;98168.88;5013831;28;20187;-70
2022/02/25 09:14:17;;;;;;;10.20;2.43;;;;;;;13.26;34.61;98172.72;5031114;28;20220;-69
2022/02/25 09:16:43;;;;;;;12.47;2.00;;;;;;;13.62;34.63;98178.09;5030598;28;20906;-71
2022/02/25 09:19:09;;;;;;;6.23;1.93;;;;;;;13.74;33.68;98174.28;5030976;28;20183;-71
2022/02/25 09:21:35;;;;;;;8.60;1.80;;;;;;;14.04;33.75;98174.06;5031192;28;21116;-70
2022/02/25 09:24:01;;;;;;;6.60;1.90;;;;;;;13.98;33.34;98176.34;5030070;28;20441;-70
2022/02/25 09:26:26;;;;;;;5.03;1.83;;;;;;;13.94;33.28;98172.34;5035061;28;20422;-70
2022/02/25 09:28:52;;;;;;;7.47;1.70;;;;;;;14.06;31.87;98177.38;5030754;28;20179;-69
2022/02/25 09:31:17;;;;;;;7.47;1.67;;;;;;;14.31;32.40;98169.69;5012900;28;20199;-71
2022/02/25 09:33:43;;;;;;;3.47;1.43;;;;;;;14.35;31.51;98182.41;5013089;28;20226;-71
2022/02/25 09:36:08;;;;;;;5.70;1.50;;;;;;;14.79;31.76;98173.69;5030265;28;20670;-71
2022/02/25 09:38:34;;;;;;;11.50;1.93;;;;;;;15.01;31.18;98171.50;5030659;28;20192;-71
2022/02/25 09:41:00;;;;;;;10.07;1.63;;;;;;;15.10;30.35;98175.00;5032971;28;20248;-71
2022/02/25 09:43:26;;;;;;;8.90;2.07;;;;;;;15.12;30.85;98173.03;5033755;28;20188;-71
2022/02/25 09:45:52;;;;;;;5.97;1.70;;;;;;;14.43;30.62;98179.81;5016255;28;20482;-70
2022/02/25 09:48:18;;;;;;;10.47;1.57;;;;;;;13.49;31.99;98175.81;5034220;28;20218;-70
2022/02/25 09:50:44;;;;;;;15.70;2.23;;;;;;;13.84;31.70;98171.59;5034437;28;20465;-70
2022/02/25 09:53:10;;;;;;;6.33;1.53;;;;;;;14.22;30.67;98190.72;5034343;28;20433;-70
2022/02/25 09:55:36;;;;;;;5.50;1.50;;;;;;;14.45;30.25;98190.25;5030888;28;20179;-69
2022/02/25 09:58:05;;;;;;;4.60;1.30;;;;;;;14.96;29.94;98179.06;5027354;28;20450;-70
2022/02/25 10:00:32;;;;;;;7.53;1.60;;;;;;;14.67;29.92;98180.16;5033267;28;20486;-70
2022/02/25 10:03:00;;;;;;;6.53;1.90;;;;;;;14.56;29.92;98184.72;5033331;28;20415;-70
2022/02/25 10:05:27;;;;;;;5.73;1.60;;;;;;;14.78;30.03;98187.03;5033637;28;20480;-70
2022/02/25 10:07:53;;;;;;;3.70;1.20;;;;;;;14.38;30.82;98194.44;5033916;28;20442;-69
2022/02/25 10:10:20;;;;;;;7.83;1.60;;;;;;;14.80;30.40;98204.38;5032840;28;21050;-70
2022/02/25 10:12:59;;;;;;;14.30;1.73;;;;;;;14.72;29.46;98196.41;5015997;28;20189;-69
2022/02/25 10:15:31;;;;;;;5.10;1.50;;;;;;;15.16;29.61;98191.03;5033461;28;20466;-70
2022/02/25 10:18:23;;;;;;;14.10;1.60;;;;;;;15.12;29.67;98187.06;5033296;28;20856;-70
2022/02/25 10:20:49;;;;;;;5.67;1.20;;;;;;;15.68;29.32;98185.81;5022654;28;20426;-70
2022/02/25 10:23:27;;;;;;;7.47;1.83;;;;;;;16.18;28.66;98192.03;5033097;28;20863;-71
2022/02/25 10:25:55;;;;;;;9.83;1.57;;;;;;;16.26;28.02;98189.38;5032474;28;20429;-70
2022/02/25 10:28:32;;;;;;;5.67;1.73;;;;;;;15.47;28.03;98184.41;5015634;28;21016;-70
2022/02/25 10:31:21;;;;;;;7.50;1.90;;;;;;;15.51;28.24;98183.91;5018473;28;20864;-70
2022/02/25 10:34:05;;;;;;;10.27;2.23;;;;;;;15.02;29.14;98194.25;5033554;28;20426;-70
2022/02/25 10:36:57;;;;;;;8.20;2.37;;;;;;;14.77;29.53;98199.41;5033020;28;20497;-70
2022/02/25 10:39:29;;;;;;;3.40;1.07;;;;;;;15.10;29.45;98190.84;5029013;28;20464;-70
2022/02/25 10:42:11;;;;;;;6.67;1.60;;;;;;;15.65;28.58;98193.06;5033425;28;20816;-70
2022/02/25 10:44:44;;;;;;;7.67;1.50;;;;;;;14.63;28.31;98199.91;5033203;28;20415;-71
2022/02/25 10:47:30;;;;;;;3.20;1.17;;;;;;;15.19;28.14;98188.09;5033012;28;20457;-70
2022/02/25 10:50:17;;;;;;;6.20;1.47;;;;;;;15.70;27.35;98189.09;5032487;28;20477;-71
2022/02/25 10:52:45;;;;;;;6.00;1.40;;;;;;;15.68;27.69;98188.44;5014211;28;20434;-70
2022/02/25 10:55:13;;;;;;;4.03;1.27;;;;;;;15.25;27.48;98193.75;5031671;28;20464;-70
2022/02/25 10:57:39;;;;;;;6.20;1.40;;;;;;;14.91;27.78;98184.81;5032559;28;20446;-70
2022/02/25 11:00:11;;;;;;;5.97;1.40;;;;;;;14.62;28.88;98178.00;5033514;28;20428;-70
2022/02/25 11:02:47;;;;;;;6.97;1.83;;;;;;;14.28;29.05;98200.66;5025587;28;20318;-70
2022/02/25 11:05:24;;;;;;;4.00;1.50;;;;;;;14.42;29.56;98193.19;5032486;28;20429;-70
2022/02/25 11:07:52;;;;;;;4.63;1.27;;;;;;;14.89;29.94;98190.22;5015481;28;20434;-71
2022/02/25 11:10:28;;;;;;;4.77;1.40;;;;;;;15.36;29.00;98185.53;5032131;28;20473;-71
2022/02/25 11:12:56;;;;;;;6.10;1.20;;;;;;;15.59;28.37;98184.94;5032803;28;20438;-70
2022/02/25 11:15:26;;;;;;;9.23;2.00;;;;;;;15.73;27.79;98189.63;5014508;28;20752;-70
2022/02/25 11:17:52;;;;;;;5.80;1.17;;;;;;;16.08;27.08;98192.16;5032705;28;20443;-71
2022/02/25 11:20:23;;;;;;;4.50;1.30;;;;;;;16.28;26.58;98187.41;5036555;28;20418;-71
2022/02/25 11:22:53;;;;;;;8.43;1.60;;;;;;;16.45;25.48;98182.13;5038916;28;20422;-71
2022/02/25 11:25:18;;;;;;;3.93;1.47;;;;;;;16.40;25.39;98191.38;5014567;28;20424;-71
2022/02/25 11:27:44;;;;;;;9.23;1.60;;;;;;;16.71;25.48;98189.84;5032018;28;20453;-70
2022/02/25 11:30:14;;;;;;;4.87;1.30;;;;;;;16.66;25.48;98192.19;5032218;28;20281;-72
2022/02/25 11:32:51;;;;;;;9.50;1.43;;;;;;;16.21;25.35;98194.34;5014783;28;20422;-71
2022/02/25 11:35:27;;;;;;;6.30;1.47;;;;;;;16.12;25.64;98189.06;5013985;28;20889;-71
2022/02/25 11:38:00;;;;;;;5.13;1.43;;;;;;;15.60;26.57;98182.13;5032338;28;20438;-70
2022/02/25 11:40:53;;;;;;;5.20;1.63;;;;;;;15.95;26.02;98185.53;5014246;28;20433;-71
2022/02/25 11:43:44;;;;;;;4.47;1.20;;;;;;;15.86;26.07;98185.72;5032254;28;20425;-72